Time;durP1;ratioP1;P1;durP2;ratioP2;P2;SDS_P1;SDS_P2;PMS_P1;PMS_P2;Temp;Humidity;BMP_temperature;BMP_pressure;BME280_temperature;BME280_humidity;BME280_pressure;Samples;Min_cycle;Max_cycle;Signal;HPM_P1;HPM_P2
2021/06/29 00:02:13;;;;;;;8.18;7.10;;;23.00;99.90;;;;;;5091708;28;20028;-64
2021/06/29 00:04:39;;;;;;;10.57;7.63;;;23.00;99.90;;;;;;5073661;28;20112;-63
2021/06/29 00:07:04;;;;;;;9.10;7.40;;;22.90;99.90;;;;;;5081367;28;20380;-62
2021/06/29 00:09:30;;;;;;;9.60;8.05;;;22.90;99.90;;;;;;5074134;28;20502;-63
2021/06/29 00:11:56;;;;;;;9.02;7.85;;;22.90;99.90;;;;;;5074191;28;20021;-62
2021/06/29 00:14:23;;;;;;;9.40;7.32;;;22.90;99.90;;;;;;5075473;28;20115;-62
2021/06/29 00:16:49;;;;;;;11.40;9.05;;;22.90;99.90;;;;;;5092083;28;20024;-62
2021/06/29 00:19:14;;;;;;;8.98;7.93;;;22.90;99.90;;;;;;5074305;28;20025;-63
2021/06/29 00:21:40;;;;;;;11.20;8.77;;;22.90;99.90;;;;;;5073088;28;20082;-63
2021/06/29 00:24:06;;;;;;;9.85;8.48;;;22.90;99.90;;;;;;5074594;28;20031;-63
2021/06/29 00:26:32;;;;;;;9.88;8.73;;;22.90;99.90;;;;;;5073636;28;20349;-63
2021/06/29 00:28:58;;;;;;;11.98;9.50;;;22.90;99.90;;;;;;5078999;28;20093;-63
2021/06/29 00:31:24;;;;;;;9.82;8.80;;;22.90;99.90;;;;;;5093400;28;20035;-63
2021/06/29 00:33:50;;;;;;;10.13;9.02;;;22.90;99.90;;;;;;5077914;28;20044;-63
2021/06/29 00:36:16;;;;;;;10.98;9.60;;;22.90;99.90;;;;;;5081790;28;20024;-64
2021/06/29 00:38:43;;;;;;;12.68;10.43;;;22.90;99.90;;;;;;5092101;28;20045;-62
2021/06/29 00:41:09;;;;;;;12.18;10.75;;;22.90;99.90;;;;;;5084607;28;20109;-65
2021/06/29 00:43:35;;;;;;;12.18;10.88;;;22.90;99.90;;;;;;5073261;28;20469;-63
2021/06/29 00:46:01;;;;;;;13.88;10.85;;;22.80;99.90;;;;;;5072248;28;20032;-63
2021/06/29 00:48:26;;;;;;;11.82;10.55;;;22.80;99.90;;;;;;5076852;28;20016;-63
2021/06/29 00:50:52;;;;;;;13.20;10.68;;;22.80;99.90;;;;;;5086394;28;20033;-63
2021/06/29 00:53:18;;;;;;;13.43;11.73;;;22.70;99.90;;;;;;5076794;28;20032;-63
2021/06/29 00:55:44;;;;;;;14.15;11.50;;;22.70;99.90;;;;;;5092850;28;20024;-64
2021/06/29 00:58:11;;;;;;;13.27;10.98;;;22.70;99.90;;;;;;5093376;28;20051;-64
2021/06/29 01:00:39;;;;;;;15.18;12.55;;;22.70;99.90;;;;;;5090196;28;20377;-63
2021/06/29 01:03:05;;;;;;;13.57;11.77;;;22.70;99.90;;;;;;5078889;28;20387;-65
2021/06/29 01:05:31;;;;;;;14.82;12.25;;;22.70;99.90;;;;;;5093268;28;20051;-63
2021/06/29 01:07:57;;;;;;;13.90;11.43;;;22.60;99.90;;;;;;5093545;28;20492;-64
2021/06/29 01:10:22;;;;;;;14.98;11.85;;;22.60;99.90;;;;;;5092180;28;20036;-65
2021/06/29 01:12:49;;;;;;;14.07;11.95;;;22.70;99.90;;;;;;5084481;28;20032;-66
2021/06/29 01:15:22;;;;;;;13.70;11.60;;;22.70;99.90;;;;;;5090936;28;20024;-63
2021/06/29 01:17:49;;;;;;;15.70;11.80;;;22.70;99.90;;;;;;5092034;28;20475;-64
2021/06/29 01:20:18;;;;;;;14.40;12.18;;;22.70;99.90;;;;;;5074839;28;20491;-64
2021/06/29 01:22:43;;;;;;;14.70;11.65;;;22.70;99.90;;;;;;5072235;28;20048;-65
2021/06/29 01:25:11;;;;;;;12.25;10.68;;;22.70;99.90;;;;;;5079251;28;20472;-64
2021/06/29 01:32:37;;;;;;;11.57;9.85;;;22.70;99.90;;;;;;5081516;28;20099;-63
2021/06/29 01:35:08;;;;;;;11.48;10.02;;;22.70;99.90;;;;;;5072440;28;20108;-64
2021/06/29 01:37:37;;;;;;;10.50;8.82;;;22.70;99.90;;;;;;5072033;28;20471;-64
2021/06/29 01:40:18;;;;;;;9.07;8.13;;;22.70;99.90;;;;;;5072236;28;20034;-64
2021/06/29 01:42:48;;;;;;;9.85;7.95;;;22.60;99.90;;;;;;5083998;28;20361;-62
2021/06/29 01:45:13;;;;;;;8.13;7.15;;;22.60;99.90;;;;;;5092406;28;20043;-65
2021/06/29 01:50:11;;;;;;;9.77;7.30;;;22.60;99.90;;;;;;5081792;28;20044;-64
2021/06/29 01:52:38;;;;;;;9.20;7.28;;;22.60;99.90;;;;;;5072011;28;20028;-64
2021/06/29 01:55:05;;;;;;;8.18;6.28;;;22.60;99.90;;;;;;5071902;28;20024;-63
2021/06/29 01:57:31;;;;;;;7.90;6.68;;;22.60;99.90;;;;;;5071577;28;20028;-64
2021/06/29 01:59:57;;;;;;;7.43;6.65;;;22.60;99.90;;;;;;5073147;28;20031;-64
2021/06/29 02:02:22;;;;;;;6.47;5.70;;;22.60;99.90;;;;;;5088428;28;20024;-63
2021/06/29 02:04:48;;;;;;;7.38;6.20;;;22.50;99.90;;;;;;5090954;28;20036;-64
2021/06/29 02:07:14;;;;;;;6.93;6.05;;;22.50;99.90;;;;;;5092091;28;20028;-63
2021/06/29 02:09:39;;;;;;;6.80;5.85;;;22.50;99.90;;;;;;5091077;28;20466;-64
2021/06/29 02:12:06;;;;;;;6.45;5.47;;;22.60;99.90;;;;;;5072721;28;20028;-64
2021/06/29 02:14:31;;;;;;;5.72;4.78;;;22.50;99.90;;;;;;5071490;28;20094;-64
2021/06/29 02:16:57;;;;;;;8.20;4.97;;;22.50;99.90;;;;;;5071897;28;20423;-64
2021/06/29 02:19:23;;;;;;;7.10;4.93;;;22.50;99.90;;;;;;5071237;28;20029;-64
2021/06/29 02:21:49;;;;;;;5.85;4.95;;;22.50;99.90;;;;;;5083545;28;20046;-64
2021/06/29 02:24:15;;;;;;;4.80;4.30;;;22.50;99.90;;;;;;5075165;28;20028;-64
2021/06/29 02:26:40;;;;;;;5.05;4.53;;;22.50;99.90;;;;;;5075579;28;20040;-64
2021/06/29 02:29:06;;;;;;;5.30;4.65;;;22.50;99.90;;;;;;5071489;28;20032;-63
2021/06/29 02:31:32;;;;;;;5.03;4.22;;;22.50;99.90;;;;;;5090854;28;20115;-63
2021/06/29 02:33:57;;;;;;;5.40;4.90;;;22.50;99.90;;;;;;5084551;28;20051;-63
2021/06/29 02:36:23;;;;;;;5.43;4.30;;;22.50;99.90;;;;;;5091673;28;20380;-64
2021/06/29 02:38:48;;;;;;;5.53;4.60;;;22.40;99.90;;;;;;5090478;28;20099;-64
2021/06/29 02:41:14;;;;;;;4.78;4.13;;;22.40;99.90;;;;;;5091246;28;20047;-64
2021/06/29 02:43:41;;;;;;;5.75;3.88;;;22.40;99.90;;;;;;5078813;28;20032;-66
2021/06/29 02:46:07;;;;;;;5.35;3.97;;;22.40;99.90;;;;;;5071456;28;20038;-65
2021/06/29 02:48:32;;;;;;;4.47;4.05;;;22.40;99.90;;;;;;5072774;28;20032;-64
2021/06/29 02:50:58;;;;;;;7.93;3.95;;;22.40;99.90;;;;;;5079627;28;20112;-65
2021/06/29 02:53:23;;;;;;;4.63;3.70;;;22.40;99.90;;;;;;5080842;28;20399;-64
2021/06/29 02:55:49;;;;;;;4.80;3.88;;;22.40;99.90;;;;;;5091224;28;20027;-64
2021/06/29 02:58:15;;;;;;;4.65;3.75;;;22.40;99.90;;;;;;5091680;28;20024;-64
2021/06/29 03:00:40;;;;;;;4.30;3.88;;;22.40;99.90;;;;;;5090782;28;20028;-64
2021/06/29 03:03:06;;;;;;;4.53;3.55;;;22.40;99.90;;;;;;5084113;28;20055;-65
2021/06/29 03:05:32;;;;;;;3.95;3.42;;;22.40;99.90;;;;;;5080623;28;20104;-64
2021/06/29 03:07:57;;;;;;;3.58;3.28;;;22.40;99.90;;;;;;5090189;28;20036;-67
2021/06/29 03:10:23;;;;;;;4.10;3.30;;;22.40;99.90;;;;;;5090230;28;20534;-65
2021/06/29 03:12:48;;;;;;;5.80;3.53;;;22.40;99.90;;;;;;5085418;28;20633;-65
2021/06/29 03:15:14;;;;;;;4.13;3.15;;;22.40;99.90;;;;;;5071043;28;20102;-65
2021/06/29 03:17:40;;;;;;;3.58;3.10;;;22.30;99.90;;;;;;5070953;28;20068;-65
2021/06/29 03:20:08;;;;;;;4.35;3.28;;;22.30;99.90;;;;;;5075737;28;20369;-64
2021/06/29 03:22:34;;;;;;;4.43;3.33;;;22.30;99.90;;;;;;5072136;28;20040;-64
2021/06/29 03:24:59;;;;;;;3.47;3.00;;;22.30;99.90;;;;;;5084880;28;20033;-67
2021/06/29 03:27:25;;;;;;;3.30;2.75;;;22.30;99.90;;;;;;5070922;28;20042;-67
2021/06/29 03:29:51;;;;;;;3.40;3.10;;;22.30;99.90;;;;;;5070662;28;20040;-66
2021/06/29 03:32:16;;;;;;;3.90;2.88;;;22.30;99.90;;;;;;5070966;28;20021;-66
2021/06/29 03:34:42;;;;;;;3.75;3.30;;;22.40;99.90;;;;;;5077245;28;20028;-66
2021/06/29 03:37:08;;;;;;;5.25;3.35;;;22.40;99.90;;;;;;5089842;28;20155;-64
2021/06/29 03:39:34;;;;;;;3.80;3.05;;;22.30;99.90;;;;;;5090767;28;20020;-66
2021/06/29 03:42:00;;;;;;;3.50;2.78;;;22.30;99.90;;;;;;5091121;28;20093;-66
2021/06/29 03:44:26;;;;;;;4.65;3.03;;;22.30;99.90;;;;;;5086460;28;20025;-64
2021/06/29 03:46:52;;;;;;;4.45;3.00;;;22.30;99.90;;;;;;5070455;28;20078;-66
2021/06/29 03:49:18;;;;;;;4.18;3.13;;;22.30;99.90;;;;;;5070614;28;20040;-65
2021/06/29 03:51:44;;;;;;;3.58;2.95;;;22.30;99.90;;;;;;5073453;28;20020;-64
2021/06/29 03:54:10;;;;;;;5.18;2.67;;;22.30;99.90;;;;;;5075840;28;20450;-66
2021/06/29 03:56:35;;;;;;;3.78;2.75;;;22.30;99.90;;;;;;5094425;28;20047;-66
2021/06/29 03:59:07;;;;;;;3.75;2.60;;;22.30;99.90;;;;;;5094516;28;20032;-65
2021/06/29 04:01:34;;;;;;;2.90;2.53;;;22.30;99.90;;;;;;5092644;28;20044;-66
2021/06/29 04:04:00;;;;;;;3.97;3.28;;;22.30;99.90;;;;;;5084741;28;20536;-65
2021/06/29 04:06:32;;;;;;;5.65;3.03;;;22.30;99.90;;;;;;5082418;28;20067;-64
2021/06/29 04:08:59;;;;;;;3.92;2.78;;;22.30;99.90;;;;;;5064414;28;20062;-65
2021/06/29 04:11:27;;;;;;;3.05;2.45;;;22.30;99.90;;;;;;5073976;28;20052;-67
2021/06/29 04:13:53;;;;;;;5.30;2.95;;;22.30;99.90;;;;;;5073798;28;20021;-66
2021/06/29 04:16:19;;;;;;;4.82;2.70;;;22.30;99.90;;;;;;5091759;28;20029;-69
2021/06/29 04:18:45;;;;;;;4.40;2.88;;;22.30;99.90;;;;;;5087901;28;20032;-64
2021/06/29 04:21:11;;;;;;;3.72;2.65;;;22.30;99.90;;;;;;5074032;28;20024;-66
2021/06/29 04:23:38;;;;;;;5.07;2.90;;;22.30;99.90;;;;;;5091321;28;20038;-66
2021/06/29 04:26:05;;;;;;;5.22;3.13;;;22.20;99.90;;;;;;5086032;28;20366;-65
2021/06/29 04:28:31;;;;;;;4.82;3.30;;;22.20;99.90;;;;;;5073497;28;20071;-65
2021/06/29 04:30:57;;;;;;;4.32;2.78;;;22.30;99.90;;;;;;5073938;28;20028;-65
2021/06/29 04:33:23;;;;;;;3.42;3.10;;;22.20;99.90;;;;;;5078757;28;20024;-66
2021/06/29 04:35:49;;;;;;;4.85;3.00;;;22.20;99.90;;;;;;5078497;28;20078;-66
2021/06/29 04:38:15;;;;;;;6.88;3.60;;;22.20;99.90;;;;;;5075191;28;20064;-65
2021/06/29 04:40:41;;;;;;;6.68;3.47;;;22.20;99.90;;;;;;5093482;28;20063;-67
2021/06/29 04:43:06;;;;;;;6.22;3.67;;;22.20;99.90;;;;;;5092029;28;20056;-64
2021/06/29 04:45:32;;;;;;;6.03;3.78;;;22.20;99.90;;;;;;5081124;28;20486;-65
2021/06/29 04:47:58;;;;;;;8.18;3.95;;;22.20;99.90;;;;;;5084916;28;20436;-65
2021/06/29 04:50:24;;;;;;;5.15;3.35;;;22.20;99.90;;;;;;5073343;28;20430;-64
2021/06/29 04:52:51;;;;;;;5.18;3.50;;;22.20;99.90;;;;;;5074034;28;20100;-65
2021/06/29 04:55:17;;;;;;;4.75;3.63;;;22.20;99.90;;;;;;5082691;28;20035;-65
2021/06/29 04:57:43;;;;;;;5.55;3.97;;;22.20;99.90;;;;;;5080114;28;20029;-63
2021/06/29 05:00:15;;;;;;;5.53;4.05;;;22.20;99.90;;;;;;5073598;28;20107;-65
2021/06/29 05:02:44;;;;;;;4.38;3.70;;;22.20;99.90;;;;;;5089140;28;20024;-64
2021/06/29 05:05:11;;;;;;;5.18;3.95;;;22.20;99.90;;;;;;5086854;28;20024;-65
2021/06/29 05:07:40;;;;;;;6.75;3.65;;;22.20;99.90;;;;;;5092887;28;20035;-64
2021/06/29 05:10:08;;;;;;;4.10;3.50;;;22.20;99.90;;;;;;5092619;28;20387;-65
2021/06/29 05:12:34;;;;;;;5.88;3.90;;;22.20;99.90;;;;;;5092869;28;20032;-65
2021/06/29 05:15:00;;;;;;;3.85;3.45;;;22.20;99.90;;;;;;5086136;28;20461;-64
2021/06/29 05:17:25;;;;;;;5.25;3.83;;;22.20;99.90;;;;;;5072841;28;20081;-64
2021/06/29 05:19:51;;;;;;;5.43;3.50;;;22.20;99.90;;;;;;5072407;28;20028;-65
2021/06/29 05:22:17;;;;;;;4.88;3.35;;;22.20;99.90;;;;;;5072622;28;20062;-65
2021/06/29 05:24:42;;;;;;;4.43;3.40;;;22.20;99.90;;;;;;5076531;28;20020;-66
2021/06/29 05:27:08;;;;;;;3.40;3.10;;;22.30;99.90;;;;;;5086450;28;20465;-66
2021/06/29 05:29:34;;;;;;;4.55;3.33;;;22.30;99.90;;;;;;5072235;28;20033;-65
2021/06/29 05:31:59;;;;;;;5.63;3.50;;;22.30;99.90;;;;;;5073762;28;20049;-66
2021/06/29 05:34:25;;;;;;;5.75;3.75;;;22.30;99.90;;;;;;5074590;28;20610;-67
2021/06/29 05:36:50;;;;;;;4.07;3.67;;;22.30;99.90;;;;;;5072249;28;20086;-66
2021/06/29 05:39:17;;;;;;;4.35;3.60;;;22.30;99.90;;;;;;5073323;28;20024;-66
2021/06/29 05:41:44;;;;;;;4.40;3.63;;;22.30;99.90;;;;;;5072056;28;20062;-67
2021/06/29 05:44:09;;;;;;;4.13;3.17;;;22.40;99.90;;;;;;5075600;28;20051;-67
2021/06/29 05:46:35;;;;;;;4.63;3.58;;;22.40;99.90;;;;;;5071851;28;20464;-68
2021/06/29 05:49:03;;;;;;;5.65;4.00;;;22.40;99.90;;;;;;5072228;28;20444;-65
2021/06/29 05:51:29;;;;;;;4.03;3.55;;;22.40;99.90;;;;;;5074117;28;20051;-67
2021/06/29 05:53:54;;;;;;;3.90;3.50;;;22.50;99.90;;;;;;5077553;28;20037;-66
2021/06/29 05:56:20;;;;;;;4.57;3.47;;;22.50;99.90;;;;;;5071933;28;20052;-67
2021/06/29 05:58:45;;;;;;;4.88;3.75;;;22.50;99.90;;;;;;5071500;28;20064;-67
2021/06/29 06:01:11;;;;;;;4.20;3.55;;;22.60;99.90;;;;;;5072952;28;20039;-65
2021/06/29 06:03:37;;;;;;;3.50;3.20;;;22.60;99.90;;;;;;5078222;28;20020;-66
2021/06/29 06:06:02;;;;;;;3.53;3.13;;;22.60;99.90;;;;;;5077836;28;20036;-65
2021/06/29 06:08:29;;;;;;;4.43;3.60;;;22.60;99.90;;;;;;5072066;28;20033;-67
2021/06/29 06:10:55;;;;;;;5.70;4.05;;;22.60;99.90;;;;;;5071525;28;20082;-67
2021/06/29 06:13:20;;;;;;;12.20;7.65;;;22.60;99.90;;;;;;5072654;28;20041;-64
2021/06/29 06:15:46;;;;;;;16.50;10.27;;;22.60;99.90;;;;;;5075266;28;20055;-69
2021/06/29 06:18:12;;;;;;;18.75;12.57;;;22.60;99.90;;;;;;5071352;28;20021;-63
2021/06/29 06:20:38;;;;;;;22.60;13.18;;;22.50;99.90;;;;;;5071415;28;20059;-62
2021/06/29 06:23:05;;;;;;;20.17;13.13;;;22.50;99.90;;;;;;5071529;28;20025;-63
2021/06/29 06:25:32;;;;;;;22.88;14.02;;;22.50;99.90;;;;;;5071559;28;20484;-62
2021/06/29 06:27:57;;;;;;;25.35;15.27;;;22.50;99.90;;;;;;5071752;28;20028;-61
2021/06/29 06:30:23;;;;;;;38.97;21.42;;;22.50;99.90;;;;;;5071460;28;20028;-62
2021/06/29 06:32:49;;;;;;;36.80;22.50;;;22.50;99.90;;;;;;5082484;28;20583;-62
2021/06/29 06:35:15;;;;;;;36.33;22.92;;;22.40;99.90;;;;;;5077946;28;20025;-62
2021/06/29 06:37:40;;;;;;;40.38;25.33;;;22.40;99.90;;;;;;5081627;28;20407;-62
2021/06/29 06:40:07;;;;;;;45.63;27.10;;;22.30;99.90;;;;;;5079947;28;20473;-62
2021/06/29 06:42:32;;;;;;;44.92;26.58;;;22.40;99.90;;;;;;5070849;28;20028;-62
2021/06/29 06:44:59;;;;;;;43.55;25.80;;;22.30;99.90;;;;;;5072602;28;20028;-61
2021/06/29 06:47:25;;;;;;;41.85;25.27;;;22.30;99.90;;;;;;5070142;28;20024;-63
2021/06/29 06:49:51;;;;;;;41.95;24.75;;;22.30;99.90;;;;;;5070308;28;20367;-64
2021/06/29 06:52:17;;;;;;;43.70;23.88;;;22.30;99.90;;;;;;5071172;28;20031;-64
2021/06/29 06:54:43;;;;;;;49.97;28.50;;;22.30;99.90;;;;;;5070512;28;20392;-63
2021/06/29 06:57:10;;;;;;;50.13;28.95;;;22.30;99.90;;;;;;5091460;28;20020;-65
2021/06/29 06:59:36;;;;;;;57.70;32.55;;;22.20;99.90;;;;;;5084857;28;20032;-64
2021/06/29 07:02:02;;;;;;;60.47;34.15;;;22.20;99.90;;;;;;5084830;28;20469;-64
2021/06/29 07:04:28;;;;;;;60.17;33.67;;;22.20;99.90;;;;;;5067435;28;20032;-65
2021/06/29 07:06:53;;;;;;;61.80;35.13;;;22.20;99.90;;;;;;5069770;28;20090;-65
2021/06/29 07:09:20;;;;;;;61.92;35.60;;;22.20;99.90;;;;;;5070859;28;20037;-65
2021/06/29 07:11:46;;;;;;;59.22;34.03;;;22.20;99.90;;;;;;5070972;28;20039;-65
2021/06/29 07:14:12;;;;;;;65.47;35.13;;;22.20;99.90;;;;;;5070995;28;20032;-65
2021/06/29 07:16:38;;;;;;;60.33;35.53;;;22.20;99.90;;;;;;5070695;28;20021;-64
2021/06/29 07:19:04;;;;;;;60.80;34.80;;;22.20;99.90;;;;;;5070691;28;20119;-67
2021/06/29 07:21:30;;;;;;;56.97;34.50;;;22.20;99.90;;;;;;5071302;28;20097;-68
2021/06/29 07:23:56;;;;;;;52.40;31.38;;;22.20;99.90;;;;;;5070993;28;20028;-70
2021/06/29 07:26:23;;;;;;;55.28;31.73;;;22.20;99.90;;;;;;5074174;28;20039;-71
2021/06/29 07:28:49;;;;;;;52.63;30.30;;;22.30;99.90;;;;;;5073954;28;20071;-69
2021/06/29 07:31:17;;;;;;;51.33;30.23;;;22.30;99.90;;;;;;5074922;28;20039;-71
2021/06/29 07:33:46;;;;;;;51.08;29.00;;;22.30;99.90;;;;;;5073858;28;20032;-70
2021/06/29 07:36:12;;;;;;;50.35;29.88;;;22.40;99.90;;;;;;5074382;28;20024;-66
2021/06/29 07:38:39;;;;;;;52.30;28.77;;;22.40;99.90;;;;;;5082086;28;20017;-65
2021/06/29 07:41:05;;;;;;;49.65;28.42;;;22.40;99.90;;;;;;5073596;28;20069;-67
2021/06/29 07:43:31;;;;;;;48.40;28.20;;;22.40;99.90;;;;;;5073812;28;20063;-65
2021/06/29 07:45:57;;;;;;;47.13;28.25;;;22.40;99.90;;;;;;5077798;28;20035;-69
2021/06/29 07:48:23;;;;;;;47.60;29.25;;;22.40;99.90;;;;;;5074412;28;20041;-67
2021/06/29 07:50:49;;;;;;;48.35;28.63;;;22.50;99.90;;;;;;5074410;28;20107;-66
2021/06/29 07:53:14;;;;;;;47.13;27.55;;;22.50;99.90;;;;;;5074342;28;20150;-67
2021/06/29 07:55:40;;;;;;;42.72;27.15;;;22.50;99.90;;;;;;5074128;28;20538;-64
2021/06/29 07:58:06;;;;;;;49.80;28.35;;;22.50;99.90;;;;;;5077421;28;20043;-67
2021/06/29 08:00:31;;;;;;;46.67;27.83;;;22.50;99.90;;;;;;5073432;28;20025;-65
2021/06/29 08:02:59;;;;;;;44.92;26.75;;;22.50;99.90;;;;;;5074332;28;20070;-64
2021/06/29 08:05:25;;;;;;;42.42;26.92;;;22.50;99.90;;;;;;5074371;28;20031;-65
2021/06/29 08:07:50;;;;;;;42.75;25.70;;;22.60;99.90;;;;;;5073456;28;20029;-65
2021/06/29 08:10:16;;;;;;;43.92;25.92;;;22.60;99.90;;;;;;5073964;28;20757;-66
2021/06/29 08:12:42;;;;;;;38.70;25.17;;;22.60;99.90;;;;;;5073867;28;20528;-66
2021/06/29 08:15:09;;;;;;;39.40;24.92;;;22.60;99.90;;;;;;5073286;28;20166;-65
2021/06/29 08:17:34;;;;;;;38.70;25.38;;;22.70;99.90;;;;;;5073508;28;20021;-67
2021/06/29 08:20:00;;;;;;;34.05;23.90;;;22.70;99.90;;;;;;5074013;28;20521;-64
2021/06/29 08:22:26;;;;;;;36.45;23.45;;;22.70;99.90;;;;;;5086260;28;20023;-65
2021/06/29 08:24:52;;;;;;;33.97;23.13;;;22.70;99.90;;;;;;5093802;28;20024;-65
2021/06/29 08:27:18;;;;;;;32.85;21.98;;;22.80;99.90;;;;;;5093989;28;20103;-68
2021/06/29 08:29:44;;;;;;;31.27;20.65;;;22.80;99.90;;;;;;5093608;28;20036;-69
2021/06/29 08:32:11;;;;;;;30.58;21.17;;;22.80;99.90;;;;;;5089730;28;20261;-70
2021/06/29 08:34:37;;;;;;;27.23;20.52;;;22.90;99.90;;;;;;5073354;28;20021;-67
2021/06/29 08:37:03;;;;;;;28.02;18.90;;;22.90;99.90;;;;;;5071838;28;20487;-65
2021/06/29 08:39:28;;;;;;;29.25;18.75;;;22.90;99.90;;;;;;5073401;28;20526;-66
2021/06/29 08:41:54;;;;;;;27.90;18.67;;;22.90;99.90;;;;;;5072938;28;20060;-70
2021/06/29 08:44:20;;;;;;;24.52;18.05;;;22.90;99.90;;;;;;5073205;28;20025;-68
2021/06/29 08:46:46;;;;;;;22.95;16.52;;;22.90;99.90;;;;;;5073226;28;20025;-66
2021/06/29 08:49:12;;;;;;;25.38;17.60;;;22.90;99.90;;;;;;5073469;28;20033;-68
2021/06/29 08:51:39;;;;;;;24.52;16.23;;;22.90;99.90;;;;;;5073086;28;20385;-64
2021/06/29 08:54:05;;;;;;;22.67;16.58;;;22.90;99.90;;;;;;5073443;28;20032;-68
2021/06/29 08:56:32;;;;;;;20.95;15.52;;;23.00;99.90;;;;;;5072913;28;20052;-64
2021/06/29 08:58:59;;;;;;;20.95;14.45;;;23.00;99.90;;;;;;5073692;28;20426;-65
2021/06/29 09:01:29;;;;;;;20.98;14.43;;;23.00;99.90;;;;;;5076141;28;20031;-69
2021/06/29 09:03:56;;;;;;;18.08;13.55;;;23.00;99.90;;;;;;5071753;28;20028;-67
2021/06/29 09:06:33;;;;;;;20.02;14.07;;;23.10;99.90;;;;;;5073213;28;20052;-66
2021/06/29 09:09:29;;;;;;;18.35;13.32;;;23.10;99.90;;;;;;5073124;28;20055;-69
2021/06/29 09:11:55;;;;;;;19.92;12.95;;;23.10;99.90;;;;;;5072940;28;20048;-69
2021/06/29 09:14:27;;;;;;;16.70;12.15;;;23.10;99.90;;;;;;5072526;28;20040;-66
2021/06/29 09:16:53;;;;;;;16.88;11.85;;;23.10;99.90;;;;;;5072656;28;20036;-65
2021/06/29 09:19:36;;;;;;;16.95;12.27;;;23.10;99.90;;;;;;5073003;28;20024;-65
2021/06/29 09:22:29;;;;;;;15.23;11.00;;;23.10;99.90;;;;;;5072719;28;20366;-64
2021/06/29 09:24:55;;;;;;;16.25;11.38;;;23.20;99.90;;;;;;5064809;28;20033;-66
2021/06/29 09:27:44;;;;;;;14.45;10.30;;;23.20;99.90;;;;;;5072516;28;20040;-64
2021/06/29 09:30:31;;;;;;;15.30;10.82;;;23.20;99.90;;;;;;5072548;28;20086;-65
2021/06/29 09:33:07;;;;;;;14.70;10.73;;;23.20;99.90;;;;;;5072448;28;20077;-65
2021/06/29 09:35:34;;;;;;;15.82;11.57;;;23.20;99.90;;;;;;5073662;28;20028;-64
2021/06/29 09:38:00;;;;;;;14.55;10.75;;;23.30;99.90;;;;;;5072670;28;20108;-65
2021/06/29 09:40:28;;;;;;;15.30;10.85;;;23.30;99.90;;;;;;5072733;28;20041;-66
2021/06/29 09:43:16;;;;;;;14.63;10.88;;;23.30;99.90;;;;;;5071986;28;20044;-66
2021/06/29 09:45:47;;;;;;;13.85;9.50;;;23.30;99.90;;;;;;5071192;28;20080;-68
2021/06/29 09:48:18;;;;;;;12.90;9.60;;;23.40;99.90;;;;;;5071207;28;20032;-68
2021/06/29 09:50:50;;;;;;;10.48;8.90;;;23.40;99.90;;;;;;5071954;28;20028;-64
2021/06/29 09:53:26;;;;;;;10.27;8.55;;;23.50;99.90;;;;;;5071831;28;20364;-64
2021/06/29 09:55:55;;;;;;;10.32;8.65;;;23.50;99.90;;;;;;5071995;28;20044;-66
2021/06/29 09:58:22;;;;;;;11.18;8.38;;;23.50;99.90;;;;;;5072146;28;20067;-66
2021/06/29 10:00:49;;;;;;;11.35;8.82;;;23.60;99.90;;;;;;5073653;28;20040;-67
2021/06/29 10:03:35;;;;;;;10.20;8.52;;;23.60;99.90;;;;;;5071054;28;20052;-64
2021/06/29 10:06:10;;;;;;;10.63;8.52;;;23.60;99.90;;;;;;5070696;28;20035;-68
2021/06/29 10:08:37;;;;;;;10.95;8.25;;;23.60;99.90;;;;;;5071689;28;20423;-68
2021/06/29 10:11:16;;;;;;;9.52;7.82;;;23.60;99.90;;;;;;5071214;28;20045;-65
2021/06/29 10:14:04;;;;;;;13.95;9.10;;;23.70;99.90;;;;;;5070968;28;20035;-67
2021/06/29 10:16:38;;;;;;;12.32;9.35;;;23.70;99.90;;;;;;5071724;28;20029;-66
2021/06/29 10:19:17;;;;;;;20.15;11.43;;;23.60;99.90;;;;;;5071098;28;20021;-65
2021/06/29 10:21:44;;;;;;;19.92;10.98;;;23.60;99.90;;;;;;5067539;28;20035;-65
2021/06/29 10:24:13;;;;;;;14.55;10.20;;;23.60;99.90;;;;;;5070375;28;20024;-64
2021/06/29 10:26:41;;;;;;;15.13;9.57;;;23.60;99.90;;;;;;5072473;28;20032;-65
2021/06/29 10:29:09;;;;;;;18.88;11.05;;;23.70;99.90;;;;;;5071394;28;20116;-64
2021/06/29 10:31:42;;;;;;;18.67;10.88;;;23.60;99.90;;;;;;5071220;28;20020;-65
2021/06/29 10:34:09;;;;;;;15.25;10.45;;;23.70;99.90;;;;;;5071742;28;20075;-65
2021/06/29 10:36:39;;;;;;;17.52;10.05;;;23.70;99.90;;;;;;5073334;28;20017;-65
2021/06/29 10:39:10;;;;;;;12.13;8.85;;;23.70;99.90;;;;;;5070604;28;20074;-67
2021/06/29 10:41:40;;;;;;;12.05;8.88;;;23.70;99.90;;;;;;5070838;28;20067;-66
2021/06/29 10:44:11;;;;;;;12.10;9.45;;;23.70;99.90;;;;;;5071327;28;20100;-64
2021/06/29 10:46:40;;;;;;;12.90;8.30;;;23.70;99.90;;;;;;5070537;28;20111;-64
2021/06/29 10:49:24;;;;;;;10.15;8.18;;;23.70;99.90;;;;;;5070643;28;20036;-64
2021/06/29 10:51:50;;;;;;;;;;;23.70;99.90;;;;;;5069075;28;20050;-65
2021/06/29 10:54:34;;;;;;;9.02;7.35;;;23.80;99.90;;;;;;5069601;28;19934;-63
2021/06/29 10:57:06;;;;;;;9.93;8.02;;;23.70;99.90;;;;;;5068491;28;20044;-65
2021/06/29 10:59:33;;;;;;;9.18;7.35;;;23.80;99.90;;;;;;5068513;28;20028;-65
2021/06/29 11:01:59;;;;;;;8.52;7.00;;;23.70;99.90;;;;;;5074202;28;20089;-65
2021/06/29 11:04:46;;;;;;;8.90;6.95;;;23.80;99.90;;;;;;5074022;28;20452;-64
2021/06/29 11:07:27;;;;;;;9.90;6.85;;;23.80;99.90;;;;;;5073873;28;20070;-65
2021/06/29 11:09:55;;;;;;;9.23;7.18;;;23.80;99.90;;;;;;5072979;28;20062;-66
2021/06/29 11:12:30;;;;;;;8.35;6.18;;;23.80;99.90;;;;;;5073833;28;20041;-64
2021/06/29 11:14:58;;;;;;;8.02;6.72;;;23.80;99.90;;;;;;5073474;28;20494;-63
2021/06/29 11:17:51;;;;;;;10.88;7.15;;;23.80;99.90;;;;;;5074021;28;20017;-65
2021/06/29 11:20:22;;;;;;;8.95;7.30;;;23.80;99.90;;;;;;5073157;28;20028;-65
2021/06/29 11:22:51;;;;;;;8.32;6.85;;;23.90;99.90;;;;;;5072554;28;20029;-64
2021/06/29 11:25:54;;;;;;;11.10;6.60;;;23.90;99.90;;;;;;5073575;28;20020;-65
2021/06/29 11:28:35;;;;;;;9.93;6.60;;;23.90;99.90;;;;;;5072279;28;20050;-65
2021/06/29 11:31:08;;;;;;;7.68;5.95;;;23.90;99.90;;;;;;5073376;28;20036;-66
2021/06/29 11:33:54;;;;;;;9.48;6.05;;;23.90;99.90;;;;;;5072245;28;20019;-65
2021/06/29 11:36:26;;;;;;;8.68;6.05;;;23.90;99.90;;;;;;5072930;28;20032;-64
2021/06/29 11:39:00;;;;;;;8.38;6.18;;;23.90;99.90;;;;;;5072549;28;20158;-64
2021/06/29 11:41:37;;;;;;;7.80;5.57;;;23.90;99.90;;;;;;5072436;28;20060;-66
2021/06/29 11:44:09;;;;;;;7.00;5.63;;;23.90;99.90;;;;;;5072471;28;20488;-63
2021/06/29 11:46:45;;;;;;;6.82;5.60;;;24.00;99.90;;;;;;5072556;28;20120;-71
2021/06/29 11:49:13;;;;;;;5.95;5.30;;;24.00;99.90;;;;;;5073585;28;20089;-67
2021/06/29 11:51:51;;;;;;;8.60;5.55;;;24.00;99.90;;;;;;5071999;28;20069;-66
2021/06/29 11:54:34;;;;;;;6.75;5.03;;;24.00;99.90;;;;;;5073676;28;20048;-64
2021/06/29 11:57:12;;;;;;;5.90;5.30;;;24.00;99.90;;;;;;5074633;28;20024;-65
2021/06/29 11:59:37;;;;;;;9.30;5.50;;;24.00;99.90;;;;;;5072957;28;20025;-65
2021/06/29 12:02:05;;;;;;;7.30;5.10;;;24.00;99.90;;;;;;5073627;28;20025;-67
2021/06/29 12:04:32;;;;;;;7.88;5.32;;;24.00;99.90;;;;;;5073218;28;20028;-65
2021/06/29 12:07:03;;;;;;;6.05;5.13;;;24.10;99.90;;;;;;5073758;28;20028;-65
2021/06/29 12:09:33;;;;;;;5.60;5.00;;;24.10;99.90;;;;;;5073965;28;20041;-65
2021/06/29 12:12:25;;;;;;;5.85;5.25;;;24.10;99.90;;;;;;5074539;28;20042;-66
2021/06/29 12:14:58;;;;;;;6.95;5.72;;;24.10;99.90;;;;;;5064982;28;20037;-65
2021/06/29 12:17:24;;;;;;;6.95;5.75;;;24.10;99.90;;;;;;5073728;28;20048;-64
2021/06/29 12:20:05;;;;;;;6.25;5.28;;;24.10;99.90;;;;;;5072148;28;20067;-66
2021/06/29 12:22:33;;;;;;;6.38;5.35;;;24.10;99.90;;;;;;5070524;28;20029;-66
2021/06/29 12:25:00;;;;;;;6.20;5.28;;;24.10;99.90;;;;;;5073911;28;20060;-66
2021/06/29 12:27:26;;;;;;;7.53;6.28;;;24.10;99.90;;;;;;5073951;28;20520;-65
2021/06/29 12:29:52;;;;;;;6.82;6.15;;;24.10;99.90;;;;;;5076594;28;20484;-65
2021/06/29 12:32:23;;;;;;;6.05;5.45;;;24.10;99.90;;;;;;5073134;28;20066;-65
2021/06/29 12:34:49;;;;;;;7.53;5.93;;;24.20;99.90;;;;;;5073553;28;20054;-65
2021/06/29 12:37:15;;;;;;;6.38;5.70;;;24.10;99.90;;;;;;5073333;28;20096;-67
2021/06/29 12:39:40;;;;;;;6.63;5.80;;;24.20;99.90;;;;;;5073476;28;20064;-65
2021/06/29 12:42:12;;;;;;;6.80;6.03;;;24.20;99.90;;;;;;5073350;28;20051;-66
2021/06/29 12:44:38;;;;;;;8.68;6.78;;;24.20;99.90;;;;;;5072571;28;20404;-66
2021/06/29 12:47:04;;;;;;;6.68;6.00;;;24.20;99.90;;;;;;5073284;28;20021;-65
2021/06/29 12:49:32;;;;;;;7.13;5.97;;;24.20;99.90;;;;;;5073435;28;20032;-65
2021/06/29 12:52:00;;;;;;;6.85;6.15;;;24.20;99.90;;;;;;5073788;28;20028;-65